Torrente — A8VQ2 — position and weather

sailwx.info

Track history (hours):
 
Tides and Currents Weather Stations Pressure Air Temp Water Temp Dewpoint Dewpoint Depression Visibility Wind Speed Wind Dir Waves Ship Positions

Torrente

Last reported at 2017-Nov-02 08:55 UTC. Time now 2017-Nov-21 21:20 UTC.
Position N 36°10' E 014°48'.
Warning: this ship's position is 19 days out of date.

Length 300 m; draft 13.5 m.

Type: Ship (hazmat cat A). MMSI: 636014649.

Date/timePositionNaut miles runAvg speedWind from/ knotsBaromVisibWave heightAir tempDewpointWater temp
2017-Nov-02 08:55N 36°10' E 014°48'917.1
2017-Nov-02 08:23N 36°14' E 014°38'717.0
2017-Nov-02 08:00N 36°16' E 014°30'916.8
2017-Nov-02 07:30N 36°19' E 014°20'817.0
2017-Nov-02 07:00N 36°22' E 014°11'815.4
2017-Nov-02 06:30N 36°25' E 014°02'815.1
2017-Nov-02 06:00N 36°27' E 013°53'815.3
2017-Nov-02 05:30N 36°30' E 013°44'  
2017-Oct-30 15:53N 35°59' W 005°17'717.6
2017-Oct-30 15:30N 35°57' W 005°25'103 3.5
2017-Oct-29 10:22N 36°10' W 007°32'1511.2
2017-Oct-29 09:02N 36°14' W 007°50'111.1
2017-Oct-29 08:58N 36°14' W 007°51'811.1
2017-Oct-29 08:13N 36°17' W 008°01'211.3
2017-Oct-29 08:00N 36°17' W 008°04'611.4
2017-Oct-29 07:30N 36°19' W 008°10'711.3
2017-Oct-29 06:54N 36°21' W 008°19'511.1
2017-Oct-29 06:29N 36°22' W 008°24'511.3
2017-Oct-29 06:00N 36°23' W 008°31'611.4
2017-Oct-29 05:30N 36°25' W 008°37'611.7
2017-Oct-29 05:00N 36°26' W 008°44'611.4
2017-Oct-29 04:30N 36°28' W 008°51'611.4
2017-Oct-29 04:00N 36°29' W 008°58'9610.7
2017-Oct-28 19:00N 37°55' W 009°53'611.7
2017-Oct-28 18:30N 38°01' W 009°54'612.1
2017-Oct-28 18:00N 38°07' W 009°56'611.9
2017-Oct-28 17:30N 38°12' W 009°58'611.9
2017-Oct-28 17:00N 38°18' W 009°60'612.1
2017-Oct-28 16:30N 38°24' W 010°01'612.2
2017-Oct-28 16:00N 38°30' W 010°03'612.0
2017-Oct-28 15:30N 38°36' W 010°04'611.7
2017-Oct-28 15:00N 38°42' W 010°06'612.0
2017-Oct-28 14:30N 38°48' W 010°07'611.9
2017-Oct-28 14:00N 38°54' W 010°07'611.4
2017-Oct-28 13:30N 38°59' W 010°06'611.6
2017-Oct-28 13:00N 39°05' W 010°06'611.7
2017-Oct-28 12:30N 39°11' W 010°06'612.1
2017-Oct-28 12:00N 39°17' W 010°05'611.5
2017-Oct-28 11:30N 39°23' W 010°06'611.4
2017-Oct-28 11:00N 39°28' W 010°06'611.6
2017-Oct-28 10:30N 39°34' W 010°07'611.6
2017-Oct-28 10:00N 39°40' W 010°07'611.7
2017-Oct-28 09:30N 39°46' W 010°07'611.8
2017-Oct-28 09:00N 39°52' W 010°08'612.1
2017-Oct-28 08:30N 39°58' W 010°08'612.0
2017-Oct-28 08:00N 40°04' W 010°08'611.5
2017-Oct-28 07:29N 40°10' W 010°09'1211.6
2017-Oct-28 06:26N 40°22' W 010°09'38511.6
2017-Oct-26 21:21N 46°32' W 007°40'911.9
2017-Oct-26 20:37N 46°40' W 007°34'1312.2
2017-Oct-26 19:35N 46°51' W 007°26'1312.2
2017-Oct-26 18:31N 47°02' W 007°16'011.9
2017-Oct-26 18:29N 47°02' W 007°16'612.1
2017-Oct-26 17:57N 47°08' W 007°12'512.0
2017-Oct-26 17:31N 47°13' W 007°08'2212.4
2017-Oct-26 15:46N 47°32' W 006°54'512.1
2017-Oct-26 15:22N 47°37' W 006°51'411.4
2017-Oct-26 14:59N 47°41' W 006°48'511.8
2017-Oct-26 14:31N 47°45' W 006°44'611.9
2017-Oct-26 13:59N 47°51' W 006°40'612.0
2017-Oct-26 13:30N 47°56' W 006°36'612.1
2017-Oct-26 13:00N 48°02' W 006°32'612.1
2017-Oct-26 12:30N 48°07' W 006°28'612.2
2017-Oct-26 12:00N 48°12' W 006°23'612.4
2017-Oct-26 11:30N 48°18' W 006°18'612.2
2017-Oct-26 11:00N 48°23' W 006°14'612.1
2017-Oct-26 10:30N 48°28' W 006°09'612.1
2017-Oct-26 10:00N 48°33' W 006°05'612.1
2017-Oct-26 09:30N 48°39' W 006°01'612.8
2017-Oct-26 09:00N 48°44' W 005°56'713.0
2017-Oct-26 08:30N 48°50' W 005°51'612.2
2017-Oct-26 08:00N 48°55' W 005°46'612.2
2017-Oct-26 07:30N 48°58' W 005°38'612.4
2017-Oct-26 07:00N 49°01' W 005°29'612.3
2017-Oct-26 06:30N 49°04' W 005°21'611.7
2017-Oct-26 06:00N 49°07' W 005°14'611.6
2017-Oct-26 05:30N 49°10' W 005°06'611.8
2017-Oct-26 05:00N 49°13' W 004°58'612.1
2017-Oct-26 04:30N 49°16' W 004°50'611.3
2017-Oct-26 04:00N 49°19' W 004°43'611.3
2017-Oct-26 03:30N 49°22' W 004°36'611.8
2017-Oct-26 03:00N 49°26' W 004°28'611.9
2017-Oct-26 02:30N 49°29' W 004°20'712.0
2017-Oct-26 01:53N 49°33' W 004°11'511.9
2017-Oct-26 01:26N 49°35' W 004°03'611.8
2017-Oct-26 00:57N 49°37' W 003°55'511.5
2017-Oct-26 00:29N 49°40' W 003°48'611.3
2017-Oct-25 23:58N 49°43' W 003°41'711.0
2017-Oct-25 23:22N 49°46' W 003°32'410.5
2017-Oct-25 22:59N 49°48' W 003°27'612.6
2017-Oct-25 22:31N 49°52' W 003°19'713.3
2017-Oct-25 22:01N 49°56' W 003°10'5 9.9
2017-Oct-25 21:31N 49°57' W 003°03'510.1
2017-Oct-25 21:01N 49°60' W 002°56'510.3
2017-Oct-25 20:31N 50°02' W 002°49'510.7
2017-Oct-25 20:00N 50°03' W 002°41'1411.5
2017-Oct-25 18:50N 50°07' W 002°20'912.8
2017-Oct-25 18:08N 50°09' W 002°07'313.3
2017-Oct-25 17:56N 50°10' W 002°03'613.6
2017-Oct-25 17:31N 50°12' W 001°54'713.8
2017-Oct-25 17:00N 50°14' W 001°44'713.8
2017-Oct-25 16:30N 50°15' W 001°34'1313.6
2017-Oct-25 15:31N 50°19' W 001°13'113.1
2017-Oct-25 15:26N 50°19' W 001°12'812.8
2017-Oct-25 14:48N 50°21' W 000°59'514.1
2017-Oct-25 14:28N 50°23' W 000°52'714.7
2017-Oct-25 13:58N 50°24' W 000°41'714.1
2017-Oct-25 13:28N 50°27' W 000°30'613.9
2017-Oct-25 13:00N 50°28' W 000°21'713.6
2017-Oct-25 12:30N 50°30' W 000°10'613.1
2017-Oct-25 12:00N 50°32' W 000°01'612.7
2017-Oct-25 11:30N 50°34' E 000°09'612.6
2017-Oct-25 11:00N 50°36' E 000°18'612.8
2017-Oct-25 10:30N 50°37' E 000°28'713.4
2017-Oct-25 10:00N 50°40' E 000°38'714.1
2017-Oct-25 09:30N 50°43' E 000°47'714.7
2017-Oct-25 09:00N 50°48' E 000°57'815.1
2017-Oct-25 08:31N 50°52' E 001°07'815.2
2017-Oct-25 08:00N 50°57' E 001°15'715.0
2017-Oct-25 07:30N 51°02' E 001°24'714.2
2017-Oct-25 07:00N 51°07' E 001°33'713.4
2017-Oct-25 06:30N 51°11' E 001°41'611.9
2017-Oct-25 06:01N 51°15' E 001°48'612.6
2017-Oct-25 05:30N 51°21' E 001°51'612.6
2017-Oct-25 05:00N 51°27' E 001°53'713.0
2017-Oct-25 04:30N 51°33' E 001°47'612.4
2017-Oct-25 04:00N 51°39' E 001°46'713.2
2017-Oct-25 03:30N 51°46' E 001°45'612.6
2017-Oct-25 03:01N 51°51' E 001°41'611.0
2017-Oct-25 02:30N 51°48' E 001°33'918.5
2017-Oct-25 02:01N 51°40' E 001°26'917.2
2017-Oct-25 01:31N 51°35' E 001°15'816.0
2017-Oct-25 01:00N 51°31' E 001°04'714.2
2017-Oct-25 00:31N 51°29' E 000°53'1410.8
2017-Oct-24 23:10N 51°30' E 000°29'0 0.0
2017-Oct-24 22:44N 51°30' E 000°29'0 0.0
2017-Oct-24 22:30N 51°30' E 000°29'0 0.0
2017-Oct-24 21:58N 51°30' E 000°29'0 0.0
2017-Oct-24 21:28N 51°30' E 000°29'0 0.0
2017-Oct-24 21:00N 51°30' E 000°29'0 0.0
2017-Oct-24 20:30N 51°30' E 000°29'0 0.0
2017-Oct-24 19:55N 51°30' E 000°29'0 0.0
2017-Oct-24 07:18N 51°30' E 000°29'0 0.0
2017-Oct-24 07:00N 51°30' E 000°29'0 0.0
2017-Oct-24 02:51N 51°30' E 000°29'0 0.0
2017-Oct-24 02:21N 51°30' E 000°29'0 0.0
2017-Oct-24 01:51N 51°30' E 000°29'0 0.0
2017-Oct-24 01:27N 51°30' E 000°29'12 2.1
2017-Oct-23 19:52N 51°29' E 000°48'512.6
2017-Oct-23 19:30N 51°29' E 000°55'714.4
2017-Oct-23 19:00N 51°32' E 001°06'713.3
2017-Oct-23 18:30N 51°35' E 001°15'714.9
2017-Oct-23 18:01N 51°40' E 001°25'816.0
2017-Oct-23 17:31N 51°46' E 001°32'713.2
2017-Oct-23 17:00N 51°51' E 001°39'510.0
2017-Oct-23 16:30N 51°51' E 001°47'5 9.7
2017-Oct-23 16:00N 51°50' E 001°55'5 9.7
2017-Oct-23 15:30N 51°52' E 002°02'5 9.9
2017-Oct-23 14:59N 51°55' E 002°09'4 0.8
2017-Oct-23 09:31N 51°51' E 002°13'0 8.1
2017-Oct-23 09:30N 51°51' E 002°13'  
Track history (hours):
 
Tides and Currents Weather Stations Pressure Air Temp Water Temp Dewpoint Dewpoint Depression Visibility Wind Speed Wind Dir Waves Ship Positions

Torrente

Last reported at 2017-Nov-02 08:55 UTC. Time now 2017-Nov-21 21:20 UTC.
Position N 36°10' E 014°48'.
Warning: this ship's position is 19 days out of date.

Length 300 m; draft 13.5 m.

Type: Ship (hazmat cat A). MMSI: 636014649.

Date/timePositionNaut miles runAvg speedWind from/ knotsBaromVisibWave heightAir tempDewpointWater temp
2017-Nov-02 08:55N 36°10' E 014°48'917.1
2017-Nov-02 08:23N 36°14' E 014°38'717.0
2017-Nov-02 08:00N 36°16' E 014°30'916.8
2017-Nov-02 07:30N 36°19' E 014°20'817.0
2017-Nov-02 07:00N 36°22' E 014°11'815.4
2017-Nov-02 06:30N 36°25' E 014°02'815.1
2017-Nov-02 06:00N 36°27' E 013°53'815.3
2017-Nov-02 05:30N 36°30' E 013°44'  
2017-Oct-30 15:53N 35°59' W 005°17'717.6
2017-Oct-30 15:30N 35°57' W 005°25'103 3.5
2017-Oct-29 10:22N 36°10' W 007°32'1511.2
2017-Oct-29 09:02N 36°14' W 007°50'111.1
2017-Oct-29 08:58N 36°14' W 007°51'811.1
2017-Oct-29 08:13N 36°17' W 008°01'211.3
2017-Oct-29 08:00N 36°17' W 008°04'611.4
2017-Oct-29 07:30N 36°19' W 008°10'711.3
2017-Oct-29 06:54N 36°21' W 008°19'511.1
2017-Oct-29 06:29N 36°22' W 008°24'511.3
2017-Oct-29 06:00N 36°23' W 008°31'611.4
2017-Oct-29 05:30N 36°25' W 008°37'611.7
2017-Oct-29 05:00N 36°26' W 008°44'611.4
2017-Oct-29 04:30N 36°28' W 008°51'611.4
2017-Oct-29 04:00N 36°29' W 008°58'9610.7
2017-Oct-28 19:00N 37°55' W 009°53'611.7
2017-Oct-28 18:30N 38°01' W 009°54'612.1
2017-Oct-28 18:00N 38°07' W 009°56'611.9
2017-Oct-28 17:30N 38°12' W 009°58'611.9
2017-Oct-28 17:00N 38°18' W 009°60'612.1
2017-Oct-28 16:30N 38°24' W 010°01'612.2
2017-Oct-28 16:00N 38°30' W 010°03'612.0
2017-Oct-28 15:30N 38°36' W 010°04'611.7
2017-Oct-28 15:00N 38°42' W 010°06'612.0
2017-Oct-28 14:30N 38°48' W 010°07'611.9
2017-Oct-28 14:00N 38°54' W 010°07'611.4
2017-Oct-28 13:30N 38°59' W 010°06'611.6
2017-Oct-28 13:00N 39°05' W 010°06'611.7
2017-Oct-28 12:30N 39°11' W 010°06'612.1
2017-Oct-28 12:00N 39°17' W 010°05'611.5
2017-Oct-28 11:30N 39°23' W 010°06'611.4
2017-Oct-28 11:00N 39°28' W 010°06'611.6
2017-Oct-28 10:30N 39°34' W 010°07'611.6
2017-Oct-28 10:00N 39°40' W 010°07'611.7
2017-Oct-28 09:30N 39°46' W 010°07'611.8
2017-Oct-28 09:00N 39°52' W 010°08'612.1
2017-Oct-28 08:30N 39°58' W 010°08'612.0
2017-Oct-28 08:00N 40°04' W 010°08'611.5
2017-Oct-28 07:29N 40°10' W 010°09'1211.6
2017-Oct-28 06:26N 40°22' W 010°09'38511.6
2017-Oct-26 21:21N 46°32' W 007°40'911.9
2017-Oct-26 20:37N 46°40' W 007°34'1312.2
2017-Oct-26 19:35N 46°51' W 007°26'1312.2
2017-Oct-26 18:31N 47°02' W 007°16'011.9
2017-Oct-26 18:29N 47°02' W 007°16'612.1
2017-Oct-26 17:57N 47°08' W 007°12'512.0
2017-Oct-26 17:31N 47°13' W 007°08'2212.4
2017-Oct-26 15:46N 47°32' W 006°54'512.1
2017-Oct-26 15:22N 47°37' W 006°51'411.4
2017-Oct-26 14:59N 47°41' W 006°48'511.8
2017-Oct-26 14:31N 47°45' W 006°44'611.9
2017-Oct-26 13:59N 47°51' W 006°40'612.0
2017-Oct-26 13:30N 47°56' W 006°36'612.1
2017-Oct-26 13:00N 48°02' W 006°32'612.1
2017-Oct-26 12:30N 48°07' W 006°28'612.2
2017-Oct-26 12:00N 48°12' W 006°23'612.4
2017-Oct-26 11:30N 48°18' W 006°18'612.2
2017-Oct-26 11:00N 48°23' W 006°14'612.1
2017-Oct-26 10:30N 48°28' W 006°09'612.1
2017-Oct-26 10:00N 48°33' W 006°05'612.1
2017-Oct-26 09:30N 48°39' W 006°01'612.8
2017-Oct-26 09:00N 48°44' W 005°56'713.0
2017-Oct-26 08:30N 48°50' W 005°51'612.2
2017-Oct-26 08:00N 48°55' W 005°46'612.2
2017-Oct-26 07:30N 48°58' W 005°38'612.4
2017-Oct-26 07:00N 49°01' W 005°29'612.3
2017-Oct-26 06:30N 49°04' W 005°21'611.7
2017-Oct-26 06:00N 49°07' W 005°14'611.6
2017-Oct-26 05:30N 49°10' W 005°06'611.8
2017-Oct-26 05:00N 49°13' W 004°58'612.1
2017-Oct-26 04:30N 49°16' W 004°50'611.3
2017-Oct-26 04:00N 49°19' W 004°43'611.3
2017-Oct-26 03:30N 49°22' W 004°36'611.8
2017-Oct-26 03:00N 49°26' W 004°28'611.9
2017-Oct-26 02:30N 49°29' W 004°20'712.0
2017-Oct-26 01:53N 49°33' W 004°11'511.9
2017-Oct-26 01:26N 49°35' W 004°03'611.8
2017-Oct-26 00:57N 49°37' W 003°55'511.5
2017-Oct-26 00:29N 49°40' W 003°48'611.3
2017-Oct-25 23:58N 49°43' W 003°41'711.0
2017-Oct-25 23:22N 49°46' W 003°32'410.5
2017-Oct-25 22:59N 49°48' W 003°27'612.6
2017-Oct-25 22:31N 49°52' W 003°19'713.3
2017-Oct-25 22:01N 49°56' W 003°10'5 9.9
2017-Oct-25 21:31N 49°57' W 003°03'510.1
2017-Oct-25 21:01N 49°60' W 002°56'510.3
2017-Oct-25 20:31N 50°02' W 002°49'510.7
2017-Oct-25 20:00N 50°03' W 002°41'1411.5
2017-Oct-25 18:50N 50°07' W 002°20'912.8
2017-Oct-25 18:08N 50°09' W 002°07'313.3
2017-Oct-25 17:56N 50°10' W 002°03'613.6
2017-Oct-25 17:31N 50°12' W 001°54'713.8
2017-Oct-25 17:00N 50°14' W 001°44'713.8
2017-Oct-25 16:30N 50°15' W 001°34'1313.6
2017-Oct-25 15:31N 50°19' W 001°13'113.1
2017-Oct-25 15:26N 50°19' W 001°12'812.8
2017-Oct-25 14:48N 50°21' W 000°59'514.1
2017-Oct-25 14:28N 50°23' W 000°52'714.7
2017-Oct-25 13:58N 50°24' W 000°41'714.1
2017-Oct-25 13:28N 50°27' W 000°30'613.9
2017-Oct-25 13:00N 50°28' W 000°21'713.6
2017-Oct-25 12:30N 50°30' W 000°10'613.1
2017-Oct-25 12:00N 50°32' W 000°01'612.7
2017-Oct-25 11:30N 50°34' E 000°09'612.6
2017-Oct-25 11:00N 50°36' E 000°18'612.8
2017-Oct-25 10:30N 50°37' E 000°28'713.4
2017-Oct-25 10:00N 50°40' E 000°38'714.1
2017-Oct-25 09:30N 50°43' E 000°47'714.7
2017-Oct-25 09:00N 50°48' E 000°57'815.1
2017-Oct-25 08:31N 50°52' E 001°07'815.2
2017-Oct-25 08:00N 50°57' E 001°15'715.0
2017-Oct-25 07:30N 51°02' E 001°24'714.2
2017-Oct-25 07:00N 51°07' E 001°33'713.4
2017-Oct-25 06:30N 51°11' E 001°41'611.9
2017-Oct-25 06:01N 51°15' E 001°48'612.6
2017-Oct-25 05:30N 51°21' E 001°51'612.6
2017-Oct-25 05:00N 51°27' E 001°53'713.0
2017-Oct-25 04:30N 51°33' E 001°47'612.4
2017-Oct-25 04:00N 51°39' E 001°46'713.2
2017-Oct-25 03:30N 51°46' E 001°45'612.6
2017-Oct-25 03:01N 51°51' E 001°41'611.0
2017-Oct-25 02:30N 51°48' E 001°33'918.5
2017-Oct-25 02:01N 51°40' E 001°26'917.2
2017-Oct-25 01:31N 51°35' E 001°15'816.0
2017-Oct-25 01:00N 51°31' E 001°04'714.2
2017-Oct-25 00:31N 51°29' E 000°53'1410.8
2017-Oct-24 23:10N 51°30' E 000°29'0 0.0
2017-Oct-24 22:44N 51°30' E 000°29'0 0.0
2017-Oct-24 22:30N 51°30' E 000°29'0 0.0
2017-Oct-24 21:58N 51°30' E 000°29'0 0.0
2017-Oct-24 21:28N 51°30' E 000°29'0 0.0
2017-Oct-24 21:00N 51°30' E 000°29'0 0.0
2017-Oct-24 20:30N 51°30' E 000°29'0 0.0
2017-Oct-24 19:55N 51°30' E 000°29'0 0.0
2017-Oct-24 07:18N 51°30' E 000°29'0 0.0
2017-Oct-24 07:00N 51°30' E 000°29'0 0.0
2017-Oct-24 02:51N 51°30' E 000°29'0 0.0
2017-Oct-24 02:21N 51°30' E 000°29'0 0.0
2017-Oct-24 01:51N 51°30' E 000°29'0 0.0
2017-Oct-24 01:27N 51°30' E 000°29'12 2.1
2017-Oct-23 19:52N 51°29' E 000°48'512.6
2017-Oct-23 19:30N 51°29' E 000°55'714.4
2017-Oct-23 19:00N 51°32' E 001°06'713.3
2017-Oct-23 18:30N 51°35' E 001°15'714.9
2017-Oct-23 18:01N 51°40' E 001°25'816.0
2017-Oct-23 17:31N 51°46' E 001°32'713.2
2017-Oct-23 17:00N 51°51' E 001°39'510.0
2017-Oct-23 16:30N 51°51' E 001°47'5 9.7
2017-Oct-23 16:00N 51°50' E 001°55'5 9.7
2017-Oct-23 15:30N 51°52' E 002°02'5 9.9
2017-Oct-23 14:59N 51°55' E 002°09'4 0.8
2017-Oct-23 09:31N 51°51' E 002°13'0 8.1
2017-Oct-23 09:30N 51°51' E 002°13'  

Dump ship's entire track history